LTAF METAR and TAF | Updated Today

LTAF METAR

Adana Airport

Observation time: 30 min. ago

LTAF 200650Z 05012KT 020V080 CAVOK 24/07 Q1016 NOSIG RMK RWY23 07011KT SKC

Need help? Read our tutorial on how to read METARs or read the parsed version below.

Adana Airport (LTAF) METAR

  • Weather conditions on Fri, 20 May 2022 06:50:00 +0000 (30 min. ago):
  • Present conditions: Dry
  • Clouds: Clear skies
  • Visibility: Greater than 10 km
  • Wind: 50 degrees at 12 knots
  • Temperature: 24 celsius
  • Dew point: 7 celsius
  • Pressure: 1016 millibars
  • Remarks: RWY23 07011KT SKC


Useful to know...

LTAF TAF

Adana Airport

TAF LTAF 200440Z 2006/2106 03012KT CAVOK
Observation time: 2:40 hr. ago
Need help? Read our tutorial on how to read TAFs or read the parsed version below.

Parsed version of TAF for Adana Airport (LTAF)

  • From 20 May at 06:00 UTC, to day 21 of the month at 06:00 UTC
  • Visibility: Greater than 10 km
  • Wind: 30 degrees at 12